Time;durP1;ratioP1;P1;durP2;ratioP2;P2;SDS_P1;SDS_P2;PMS_P1;PMS_P2;Temp;Humidity;BMP_temperature;BMP_pressure;BME280_temperature;BME280_humidity;BME280_pressure;Samples;Min_cycle;Max_cycle;Signal;HPM_P1;HPM_P2
2022/09/05 00:02:06;;;;;;;3.67;2.67;;;19.20;61.30;;;;;;4926221;29;20472;-71
2022/09/05 00:05:16;;;;;;;3.40;2.47;;;19.20;61.40;;;;;;4920074;29;20563;-71
2022/09/05 00:07:54;;;;;;;3.20;2.45;;;19.20;60.80;;;;;;4885571;29;20028;-71
2022/09/05 00:10:41;;;;;;;3.78;2.65;;;19.20;60.80;;;;;;4887649;29;20366;-71
2022/09/05 00:13:20;;;;;;;4.53;2.88;;;19.20;61.20;;;;;;4908858;29;20063;-71
2022/09/05 00:16:12;;;;;;;3.28;2.13;;;19.20;60.40;;;;;;4923833;29;20028;-69
2022/09/05 00:19:23;;;;;;;4.53;2.58;;;19.20;60.90;;;;;;4915601;29;20042;-69
2022/09/05 00:21:57;;;;;;;3.63;2.38;;;19.20;60.10;;;;;;4921112;29;20034;-68
2022/09/05 00:24:53;;;;;;;4.15;2.75;;;19.20;61.00;;;;;;4920825;29;20031;-69
2022/09/05 00:27:34;;;;;;;4.15;2.83;;;19.20;61.20;;;;;;4922290;29;20123;-69
2022/09/05 00:30:09;;;;;;;5.35;2.75;;;19.10;61.00;;;;;;4923303;29;20539;-70
2022/09/05 00:32:38;;;;;;;3.95;2.70;;;19.10;61.30;;;;;;4921487;29;20024;-69
2022/09/05 00:35:20;;;;;;;3.92;2.92;;;19.10;60.80;;;;;;4922095;29;20110;-69
2022/09/05 00:37:49;;;;;;;4.72;2.60;;;19.10;60.80;;;;;;4919352;29;20941;-69
2022/09/05 00:40:28;;;;;;;4.78;2.50;;;19.00;60.80;;;;;;4920733;29;20043;-71
2022/09/05 00:43:16;;;;;;;4.68;2.80;;;19.10;61.40;;;;;;4918081;29;20150;-67
2022/09/05 00:45:57;;;;;;;3.35;2.30;;;19.10;61.30;;;;;;4921338;29;20134;-69
2022/09/05 00:48:35;;;;;;;4.03;2.60;;;19.10;61.40;;;;;;4925532;29;20564;-69
2022/09/05 00:51:20;;;;;;;4.43;2.75;;;19.10;61.40;;;;;;4920397;29;20096;-69
2022/09/05 00:54:07;;;;;;;6.38;2.88;;;19.10;61.40;;;;;;4922394;29;20438;-69
2022/09/05 00:56:52;;;;;;;4.80;2.60;;;19.10;61.20;;;;;;4920576;29;20028;-68
2022/09/05 00:59:45;;;;;;;5.90;2.78;;;19.10;61.30;;;;;;4921321;29;20036;-69
2022/09/05 01:02:29;;;;;;;3.30;2.50;;;19.00;61.20;;;;;;4919098;29;20028;-69
2022/09/05 01:05:33;;;;;;;2.92;2.40;;;19.00;61.20;;;;;;4925241;29;20126;-69
2022/09/05 01:08:36;;;;;;;3.47;2.45;;;18.90;61.00;;;;;;4922228;29;20126;-68
2022/09/05 01:11:09;;;;;;;4.15;2.80;;;18.80;61.30;;;;;;4922719;29;20043;-68
2022/09/05 01:14:00;;;;;;;4.85;2.95;;;18.80;60.50;;;;;;4926257;29;20047;-69
2022/09/05 01:16:51;;;;;;;4.25;2.40;;;18.70;62.10;;;;;;4920986;29;20377;-69
2022/09/05 01:19:50;;;;;;;6.97;2.85;;;18.70;61.20;;;;;;4919733;29;20133;-68
2022/09/05 01:22:26;;;;;;;4.45;2.55;;;18.70;61.40;;;;;;4918953;29;20063;-68
2022/09/05 01:25:25;;;;;;;3.88;2.45;;;18.70;61.70;;;;;;4926895;28;20046;-69
2022/09/05 01:28:12;;;;;;;3.83;2.65;;;18.70;61.70;;;;;;4905209;29;20047;-68
2022/09/05 01:31:14;;;;;;;3.03;2.25;;;18.80;62.20;;;;;;4921995;29;20043;-68
2022/09/05 01:34:13;;;;;;;4.03;2.63;;;18.80;62.20;;;;;;4922044;29;20041;-69
2022/09/05 01:36:45;;;;;;;6.43;2.95;;;18.80;61.20;;;;;;4919392;29;20118;-68
2022/09/05 01:39:29;;;;;;;4.82;2.50;;;18.70;61.60;;;;;;4917702;29;20051;-68
2022/09/05 01:42:18;;;;;;;4.70;3.03;;;18.70;62.10;;;;;;4918529;29;20067;-69
2022/09/05 01:44:57;;;;;;;6.80;3.05;;;18.70;61.70;;;;;;4914832;29;20047;-68
2022/09/05 01:47:41;;;;;;;7.28;2.90;;;18.70;62.10;;;;;;4922979;29;20043;-69
2022/09/05 01:50:31;;;;;;;3.35;2.67;;;18.70;61.70;;;;;;4920887;29;20044;-68
2022/09/05 01:53:24;;;;;;;3.83;2.70;;;18.60;62.40;;;;;;4919704;29;20039;-69
2022/09/05 01:56:17;;;;;;;6.70;2.83;;;18.60;62.10;;;;;;4919347;29;20047;-68
2022/09/05 01:58:46;;;;;;;4.70;2.97;;;18.60;61.60;;;;;;4918625;29;20123;-69
2022/09/05 02:01:32;;;;;;;4.00;2.30;;;18.60;62.00;;;;;;4923602;29;20035;-69
2022/09/05 02:04:15;;;;;;;;;;;18.60;62.00;;;;;;4923427;29;20058;-68
2022/09/05 02:07:06;;;;;;;5.90;3.03;;;18.60;61.50;;;;;;4920465;28;20301;-69
2022/09/05 02:09:52;;;;;;;5.78;3.08;;;18.50;62.00;;;;;;4921893;28;20032;-69
2022/09/05 02:12:29;;;;;;;7.45;3.15;;;18.50;62.00;;;;;;4920994;29;20032;-69
2022/09/05 02:15:12;;;;;;;4.47;2.88;;;18.50;62.10;;;;;;4918643;29;20039;-68
2022/09/05 02:17:41;;;;;;;6.35;3.45;;;18.30;61.90;;;;;;4918880;29;20542;-68
2022/09/05 02:20:32;;;;;;;5.60;2.63;;;18.30;62.10;;;;;;4919711;29;20036;-69
2022/09/05 02:23:17;;;;;;;4.00;2.70;;;18.40;62.50;;;;;;4922185;29;20035;-69
2022/09/05 02:25:45;;;;;;;6.70;3.45;;;18.30;62.80;;;;;;4920162;29;20492;-69
2022/09/05 02:28:13;;;;;;;4.20;2.63;;;18.20;63.10;;;;;;4922272;29;20485;-68
2022/09/05 02:30:46;;;;;;;4.65;2.92;;;18.20;62.90;;;;;;4921250;29;20063;-68
2022/09/05 02:33:44;;;;;;;4.80;3.00;;;18.20;63.20;;;;;;4918978;29;20179;-68
2022/09/05 02:36:14;;;;;;;6.15;3.60;;;18.10;62.70;;;;;;4917118;29;20058;-68
2022/09/05 02:38:45;;;;;;;5.88;3.60;;;18.00;64.10;;;;;;4917801;29;20111;-68
2022/09/05 02:41:39;;;;;;;6.13;2.97;;;17.90;62.70;;;;;;4924120;29;20800;-71
2022/09/05 02:44:18;;;;;;;5.25;3.22;;;17.80;63.40;;;;;;4921744;29;20753;-69
2022/09/05 02:46:56;;;;;;;4.60;3.00;;;17.80;63.20;;;;;;4919623;29;20051;-69
2022/09/05 02:49:46;;;;;;;4.72;2.85;;;17.70;63.60;;;;;;4923096;29;20035;-68
2022/09/05 02:52:14;;;;;;;8.40;3.50;;;17.70;64.50;;;;;;4917960;29;20036;-69
2022/09/05 02:54:45;;;;;;;4.45;3.38;;;17.70;65.30;;;;;;4918270;29;20215;-69
2022/09/05 02:57:45;;;;;;;7.38;3.47;;;17.60;64.40;;;;;;4915417;29;20141;-68
2022/09/05 03:00:36;;;;;;;5.88;3.20;;;17.60;64.40;;;;;;4922535;29;20028;-69
2022/09/05 03:03:19;;;;;;;5.53;3.40;;;17.60;65.10;;;;;;4922209;29;20134;-69
2022/09/05 03:05:57;;;;;;;5.85;2.90;;;17.60;65.20;;;;;;4919860;29;20381;-68
2022/09/05 03:09:00;;;;;;;8.77;3.40;;;17.50;65.60;;;;;;4920021;29;20110;-68
2022/09/05 03:11:51;;;;;;;6.63;3.20;;;17.50;65.20;;;;;;4905115;29;20053;-68
2022/09/05 03:14:54;;;;;;;5.07;3.20;;;17.40;65.20;;;;;;4917029;29;20044;-70
2022/09/05 03:17:26;;;;;;;7.35;3.45;;;17.50;65.70;;;;;;4923034;29;21243;-69
2022/09/05 03:20:06;;;;;;;6.32;3.33;;;17.30;66.10;;;;;;4920776;29;20098;-69
2022/09/05 03:22:38;;;;;;;5.68;3.22;;;17.30;65.40;;;;;;4916783;29;20059;-69
2022/09/05 03:25:35;;;;;;;9.13;3.47;;;17.20;66.00;;;;;;4922494;29;20028;-70
2022/09/05 03:28:12;;;;;;;8.70;3.28;;;17.20;65.90;;;;;;4918835;29;20067;-71
2022/09/05 03:30:50;;;;;;;4.32;3.08;;;17.10;66.60;;;;;;4918251;29;20032;-71
2022/09/05 03:33:47;;;;;;;4.43;3.22;;;17.20;67.00;;;;;;4916230;29;20044;-71
2022/09/05 03:36:47;;;;;;;5.68;3.63;;;17.10;67.10;;;;;;4922713;29;20032;-71
2022/09/05 03:39:46;;;;;;;7.65;3.20;;;17.10;67.00;;;;;;4921860;29;20040;-71
2022/09/05 03:42:31;;;;;;;5.57;3.75;;;17.10;66.90;;;;;;4921364;29;20060;-70
2022/09/05 03:45:32;;;;;;;7.07;3.45;;;17.10;67.00;;;;;;4919347;29;20043;-70
2022/09/05 03:48:06;;;;;;;6.45;3.38;;;17.00;67.60;;;;;;4902695;29;20036;-70
2022/09/05 03:51:10;;;;;;;5.72;3.67;;;16.90;67.80;;;;;;4917214;29;20035;-71
2022/09/05 03:54:07;;;;;;;5.03;3.53;;;16.90;67.70;;;;;;4918971;29;20036;-71
2022/09/05 03:57:12;;;;;;;7.45;3.05;;;16.90;67.50;;;;;;4919552;29;20048;-70
2022/09/05 04:00:01;;;;;;;5.15;3.28;;;16.80;68.00;;;;;;4922138;29;20036;-70
2022/09/05 04:02:36;;;;;;;4.53;3.45;;;16.80;68.10;;;;;;4921406;29;20047;-71
2022/09/05 04:05:11;;;;;;;5.93;3.40;;;16.80;68.10;;;;;;4921678;29;20104;-70
2022/09/05 04:07:58;;;;;;;7.25;3.88;;;16.80;68.30;;;;;;4917453;29;20606;-70
2022/09/05 04:10:30;;;;;;;5.85;3.63;;;16.80;68.20;;;;;;4918308;29;20031;-70
2022/09/05 04:13:01;;;;;;;6.15;3.60;;;16.70;68.30;;;;;;4917685;29;20036;-71
2022/09/05 04:15:36;;;;;;;5.03;3.50;;;16.70;68.40;;;;;;4920866;29;20020;-71
2022/09/05 04:18:22;;;;;;;10.13;3.53;;;16.70;69.10;;;;;;4919834;29;20032;-71
2022/09/05 04:21:00;;;;;;;6.88;3.83;;;16.70;68.30;;;;;;4919795;29;20545;-71
2022/09/05 04:23:55;;;;;;;9.80;3.60;;;16.60;68.60;;;;;;4924125;29;20039;-70
2022/09/05 04:26:30;;;;;;;7.10;4.00;;;16.60;68.90;;;;;;4921637;29;20039;-70
2022/09/05 04:29:02;;;;;;;8.73;3.88;;;16.60;69.00;;;;;;4923143;29;20032;-70
2022/09/05 04:31:52;;;;;;;7.10;3.72;;;16.60;69.40;;;;;;4920282;29;20043;-71
2022/09/05 04:34:50;;;;;;;5.85;3.92;;;16.70;69.20;;;;;;4927373;29;20154;-71
2022/09/05 04:37:37;;;;;;;6.57;3.47;;;16.70;69.60;;;;;;4927306;29;20071;-70
2022/09/05 04:40:30;;;;;;;5.38;3.28;;;16.70;69.20;;;;;;4922190;29;20117;-70
2022/09/05 04:43:02;;;;;;;4.93;3.53;;;16.70;69.30;;;;;;4921826;29;20044;-70
2022/09/05 04:45:32;;;;;;;6.25;3.88;;;16.70;69.10;;;;;;4921624;29;20044;-70
2022/09/05 04:48:02;;;;;;;5.38;3.70;;;16.70;68.90;;;;;;4917284;29;20047;-70
2022/09/05 04:50:29;;;;;;;5.03;3.15;;;16.70;69.20;;;;;;4919601;29;20118;-71
2022/09/05 04:53:36;;;;;;;5.18;3.40;;;16.70;69.50;;;;;;4922876;29;20691;-70
2022/09/05 04:56:10;;;;;;;8.43;3.75;;;16.80;69.50;;;;;;4921765;29;20039;-70
2022/09/05 04:58:41;;;;;;;5.53;3.35;;;16.80;69.20;;;;;;4922552;29;20040;-71
2022/09/05 05:01:28;;;;;;;6.13;3.42;;;16.80;69.30;;;;;;4920396;29;20059;-71
2022/09/05 05:03:54;;;;;;;6.22;3.58;;;16.80;68.60;;;;;;4922388;29;20162;-70
2022/09/05 05:06:23;;;;;;;6.00;3.83;;;16.90;69.30;;;;;;4919053;29;20050;-70
2022/09/05 05:08:55;;;;;;;5.45;3.78;;;16.90;69.30;;;;;;4916291;29;20043;-71
2022/09/05 05:12:04;;;;;;;5.15;3.45;;;16.90;68.60;;;;;;4925334;29;20035;-71
2022/09/05 05:14:42;;;;;;;4.13;3.38;;;16.90;69.10;;;;;;4914256;29;20051;-70
2022/09/05 05:17:54;;;;;;;6.28;3.92;;;16.90;69.40;;;;;;4923190;29;20043;-70
2022/09/05 05:20:40;;;;;;;8.20;3.70;;;17.00;69.60;;;;;;4914272;29;20062;-70
2022/09/05 05:23:12;;;;;;;6.60;3.35;;;17.00;69.20;;;;;;4918549;29;20119;-71
2022/09/05 05:25:51;;;;;;;5.57;3.17;;;17.00;69.40;;;;;;4919665;29;20032;-71
2022/09/05 05:28:44;;;;;;;4.35;3.00;;;17.00;69.30;;;;;;4920845;29;20050;-71
2022/09/05 05:31:14;;;;;;;5.72;3.72;;;17.00;69.50;;;;;;4923240;29;20039;-70
2022/09/05 05:33:43;;;;;;;8.40;3.58;;;17.00;69.00;;;;;;4924159;29;20960;-70
2022/09/05 05:36:21;;;;;;;9.13;3.40;;;16.90;69.60;;;;;;4923162;29;20058;-70
2022/09/05 05:38:50;;;;;;;5.97;3.40;;;17.00;69.20;;;;;;4920813;29;20032;-69
2022/09/05 05:41:36;;;;;;;8.65;3.40;;;16.90;69.40;;;;;;4919808;29;20572;-70
2022/09/05 05:44:36;;;;;;;6.85;3.17;;;16.90;70.10;;;;;;4919740;29;20409;-70
2022/09/05 05:47:01;;;;;;;5.90;3.35;;;17.00;70.40;;;;;;4919040;29;20047;-70
2022/09/05 05:49:33;;;;;;;5.22;3.83;;;17.00;70.30;;;;;;4924997;29;20066;-71
2022/09/05 05:52:36;;;;;;;5.22;3.53;;;17.00;69.70;;;;;;4923369;29;20040;-70
2022/09/05 05:55:26;;;;;;;6.68;3.42;;;17.00;70.30;;;;;;4921388;29;20135;-70
2022/09/05 05:58:33;;;;;;;4.70;3.47;;;17.10;70.00;;;;;;4919697;29;20038;-71
2022/09/05 06:01:35;;;;;;;7.00;3.08;;;17.20;69.60;;;;;;4919498;29;20076;-71
2022/09/05 06:04:43;;;;;;;5.63;3.38;;;17.30;69.80;;;;;;4917653;29;20835;-71
2022/09/05 06:07:46;;;;;;;4.40;3.15;;;17.40;69.90;;;;;;4923342;29;20042;-71
2022/09/05 06:10:41;;;;;;;8.73;3.25;;;17.40;69.00;;;;;;4922776;29;20040;-71
2022/09/05 06:13:38;;;;;;;4.15;3.03;;;17.50;69.30;;;;;;4912818;29;20139;-71
2022/09/05 06:16:49;;;;;;;6.15;3.13;;;17.60;68.80;;;;;;4920477;29;20040;-71
2022/09/05 06:19:33;;;;;;;6.55;3.10;;;17.70;68.90;;;;;;4919424;29;20112;-70
2022/09/05 06:22:37;;;;;;;6.15;3.22;;;17.70;69.10;;;;;;4915816;29;20841;-71
2022/09/05 06:25:27;;;;;;;4.07;3.30;;;17.70;68.90;;;;;;4918488;29;20031;-70
2022/09/05 06:28:25;;;;;;;5.20;3.90;;;17.80;69.00;;;;;;4920928;29;20090;-71
2022/09/05 06:30:57;;;;;;;5.55;3.28;;;17.90;68.80;;;;;;4920278;29;20118;-70
2022/09/05 06:33:57;;;;;;;4.93;3.10;;;18.00;68.30;;;;;;4921892;29;20035;-71
2022/09/05 06:36:46;;;;;;;6.10;3.33;;;18.10;68.90;;;;;;4920792;29;20024;-71
2022/09/05 06:39:31;;;;;;;4.63;3.25;;;18.30;68.70;;;;;;4917824;29;20404;-71
2022/09/05 06:42:48;;;;;;;4.70;2.78;;;18.30;68.10;;;;;;4915450;29;20024;-71
2022/09/05 06:45:23;;;;;;;4.75;3.28;;;18.40;67.60;;;;;;4913917;29;20052;-72
2022/09/05 06:47:54;;;;;;;12.27;3.10;;;18.50;67.30;;;;;;4924365;29;20031;-70
2022/09/05 06:50:23;;;;;;;5.32;3.00;;;18.60;67.10;;;;;;4923687;29;20587;-72
2022/09/05 06:53:19;;;;;;;5.63;2.90;;;18.50;66.80;;;;;;4921481;29;20042;-71
2022/09/05 06:55:55;;;;;;;3.93;3.03;;;18.60;67.80;;;;;;4919503;29;20122;-72
2022/09/05 06:58:46;;;;;;;7.40;3.03;;;18.70;67.90;;;;;;4918130;29;20077;-71
2022/09/05 07:01:13;;;;;;;5.47;3.28;;;18.70;66.70;;;;;;4916096;29;20040;-71
2022/09/05 07:04:08;;;;;;;4.88;3.17;;;18.70;66.80;;;;;;4921244;29;20102;-71
2022/09/05 07:07:03;;;;;;;6.20;3.10;;;18.80;66.90;;;;;;4923804;28;20038;-72
2022/09/05 07:09:54;;;;;;;6.03;3.30;;;18.80;66.90;;;;;;4922280;29;20551;-71
2022/09/05 07:12:30;;;;;;;4.75;3.33;;;19.00;66.50;;;;;;4920823;29;20516;-71
2022/09/05 07:15:23;;;;;;;5.82;3.45;;;19.20;65.60;;;;;;4920836;29;20040;-71
2022/09/05 07:18:00;;;;;;;8.27;3.10;;;19.40;65.80;;;;;;4918315;29;20409;-71
2022/09/05 07:20:34;;;;;;;5.70;3.05;;;19.70;65.30;;;;;;4913493;29;20027;-71
2022/09/05 07:23:06;;;;;;;6.47;2.95;;;19.90;63.20;;;;;;4921471;29;20050;-72
2022/09/05 07:25:33;;;;;;;6.35;2.92;;;20.10;63.90;;;;;;4923054;29;20187;-73
2022/09/05 07:28:13;;;;;;;4.13;2.42;;;20.30;63.10;;;;;;4922819;29;20042;-72
2022/09/05 07:30:45;;;;;;;5.15;3.13;;;20.30;64.20;;;;;;4919236;29;20036;-72
2022/09/05 07:33:20;;;;;;;8.05;3.10;;;20.40;63.90;;;;;;4920739;29;20914;-71
2022/09/05 07:35:47;;;;;;;4.20;2.95;;;20.40;64.00;;;;;;4917151;29;20119;-72
2022/09/05 07:38:27;;;;;;;5.95;2.83;;;20.40;62.60;;;;;;4915370;29;20040;-71
2022/09/05 07:41:20;;;;;;;7.80;2.97;;;20.40;63.90;;;;;;4916728;29;20107;-71
2022/09/05 07:43:53;;;;;;;5.55;2.70;;;20.40;63.60;;;;;;4922390;29;20377;-72
2022/09/05 07:46:27;;;;;;;3.58;2.78;;;20.40;63.90;;;;;;4921425;29;20135;-71
2022/09/05 07:49:13;;;;;;;8.57;3.17;;;20.40;63.30;;;;;;4919340;29;20678;-71
2022/09/05 07:51:53;;;;;;;3.17;2.25;;;20.40;64.50;;;;;;4916411;29;20126;-71
2022/09/05 07:54:23;;;;;;;4.03;2.60;;;20.40;63.80;;;;;;4918234;29;20413;-72
2022/09/05 07:56:53;;;;;;;4.47;2.42;;;20.40;63.80;;;;;;4917000;29;20163;-72
2022/09/05 07:59:21;;;;;;;4.13;2.92;;;20.40;63.80;;;;;;4922316;29;20028;-72
2022/09/05 08:01:51;;;;;;;4.32;2.45;;;20.30;63.80;;;;;;4926210;29;20038;-71
2022/09/05 08:04:39;;;;;;;5.65;2.45;;;20.30;64.90;;;;;;4924685;29;20032;-74
2022/09/05 08:07:46;;;;;;;4.43;2.65;;;20.30;64.60;;;;;;4923254;29;20094;-71
2022/09/05 08:10:18;;;;;;;7.93;2.70;;;20.50;65.00;;;;;;4920379;29;20056;-72
2022/09/05 08:12:49;;;;;;;3.88;2.60;;;20.50;63.00;;;;;;4920969;29;20052;-72
2022/09/05 08:15:24;;;;;;;4.15;2.38;;;20.60;64.40;;;;;;4919866;29;20027;-72
2022/09/05 08:18:02;;;;;;;6.88;2.60;;;20.60;63.70;;;;;;4920818;29;20421;-71
2022/09/05 08:20:41;;;;;;;4.53;2.58;;;20.60;62.70;;;;;;4919626;29;20062;-72
2022/09/05 08:23:16;;;;;;;5.60;3.10;;;20.60;63.30;;;;;;4924720;29;20043;-72
2022/09/05 08:26:06;;;;;;;3.63;2.75;;;20.70;63.70;;;;;;4924188;29;20040;-72
2022/09/05 08:28:50;;;;;;;7.88;2.80;;;20.90;64.20;;;;;;4923111;29;20827;-72
2022/09/05 08:31:23;;;;;;;7.30;2.90;;;21.10;63.10;;;;;;4921440;29;20039;-72
2022/09/05 08:33:55;;;;;;;6.07;3.03;;;21.20;63.30;;;;;;4920117;29;20672;-69
2022/09/05 08:36:29;;;;;;;5.35;2.67;;;21.20;63.00;;;;;;4920091;29;20027;-69
2022/09/05 08:38:58;;;;;;;3.92;2.58;;;21.30;62.30;;;;;;4922733;29;20126;-71
2022/09/05 08:41:28;;;;;;;4.07;2.65;;;21.40;62.80;;;;;;4926019;29;20028;-71
2022/09/05 08:44:15;;;;;;;6.00;2.97;;;21.50;62.40;;;;;;4923811;29;20036;-69
2022/09/05 08:47:02;;;;;;;3.33;2.60;;;21.50;61.10;;;;;;4921280;29;20373;-68
2022/09/05 08:49:37;;;;;;;7.43;2.85;;;21.60;62.40;;;;;;4920820;28;20035;-69
2022/09/05 08:52:17;;;;;;;4.35;2.38;;;21.70;61.60;;;;;;4917530;29;20044;-71
2022/09/05 08:55:20;;;;;;;3.38;2.28;;;21.80;62.10;;;;;;4920406;29;20581;-70
2022/09/05 08:58:05;;;;;;;6.30;2.58;;;21.80;61.50;;;;;;4925771;29;20484;-69
2022/09/05 09:01:01;;;;;;;5.43;2.50;;;21.90;62.50;;;;;;4918404;29;20484;-70
2022/09/05 09:03:49;;;;;;;8.35;2.63;;;22.00;62.00;;;;;;4920924;29;20051;-70
2022/09/05 09:06:41;;;;;;;5.93;2.67;;;22.20;59.70;;;;;;4921364;29;20135;-68
2022/09/05 09:09:22;;;;;;;3.35;2.80;;;22.20;60.00;;;;;;4923386;29;20059;-68
2022/09/05 09:11:54;;;;;;;7.05;2.50;;;22.20;60.10;;;;;;4919376;29;20083;-70
2022/09/05 09:14:44;;;;;;;4.28;2.40;;;22.30;61.30;;;;;;4919397;29;20834;-72
2022/09/05 09:17:25;;;;;;;5.63;2.45;;;22.40;60.30;;;;;;4924392;29;20130;-71
2022/09/05 09:20:03;;;;;;;3.53;2.58;;;22.50;61.00;;;;;;4922898;29;20047;-70
2022/09/05 09:22:50;;;;;;;7.13;2.67;;;22.60;59.10;;;;;;4920054;29;20059;-68
2022/09/05 09:25:58;;;;;;;7.72;2.50;;;22.60;59.10;;;;;;4921723;29;20123;-69
2022/09/05 09:29:09;;;;;;;2.88;2.40;;;22.60;59.60;;;;;;4908639;29;20055;-69
2022/09/05 09:32:09;;;;;;;3.45;2.55;;;22.70;59.60;;;;;;4918746;29;20047;-71
2022/09/05 09:34:44;;;;;;;3.72;2.80;;;22.80;59.40;;;;;;4922801;29;20051;-71
2022/09/05 09:37:28;;;;;;;2.70;2.42;;;22.80;58.30;;;;;;4924764;29;20035;-71
2022/09/05 09:39:57;;;;;;;5.25;2.63;;;22.90;59.50;;;;;;4921745;29;20042;-70
2022/09/05 09:42:25;;;;;;;6.40;2.92;;;23.00;59.20;;;;;;4922808;29;20030;-72
2022/09/05 09:45:14;;;;;;;6.10;2.50;;;23.10;58.80;;;;;;4921003;29;20032;-71
2022/09/05 09:47:56;;;;;;;3.67;3.08;;;23.10;58.80;;;;;;4916851;29;20063;-71
2022/09/05 09:51:00;;;;;;;5.60;2.65;;;23.30;58.60;;;;;;4922665;29;20039;-71
2022/09/05 09:53:45;;;;;;;3.53;2.67;;;23.40;58.90;;;;;;4923067;29;20036;-72
2022/09/05 09:56:18;;;;;;;4.70;2.28;;;23.70;57.90;;;;;;4937725;29;20054;-71
2022/09/05 09:59:13;;;;;;;6.07;2.88;;;23.90;57.80;;;;;;4924093;29;20043;-70
2022/09/05 10:01:53;;;;;;;5.25;2.80;;;23.90;55.80;;;;;;4919075;29;20078;-70
2022/09/05 10:04:36;;;;;;;5.13;2.97;;;24.00;56.60;;;;;;4922691;29;20091;-71
2022/09/05 10:07:31;;;;;;;2.90;2.60;;;24.10;56.80;;;;;;4917457;29;20458;-70
2022/09/05 10:10:24;;;;;;;6.27;3.13;;;24.00;56.00;;;;;;4919211;29;20035;-70
2022/09/05 10:13:21;;;;;;;7.35;3.08;;;24.10;56.20;;;;;;4925323;29;20035;-70
2022/09/05 10:15:58;;;;;;;5.60;2.90;;;24.20;56.50;;;;;;4920975;29;20119;-70
2022/09/05 10:18:38;;;;;;;3.55;2.95;;;24.10;57.30;;;;;;4922703;29;20031;-70
2022/09/05 10:21:13;;;;;;;4.18;2.60;;;24.20;57.00;;;;;;4919404;29;20082;-70
2022/09/05 10:23:45;;;;;;;;;;;24.40;56.80;;;;;;4920507;29;20043;-70
2022/09/05 10:26:30;;;;;;;3.58;2.78;;;24.40;55.20;;;;;;4917986;29;19915;-71
2022/09/05 10:29:12;;;;;;;8.30;2.70;;;24.50;55.20;;;;;;4915586;29;20424;-71
2022/09/05 10:32:00;;;;;;;8.32;2.80;;;24.50;54.70;;;;;;4925259;29;20035;-71
2022/09/05 10:34:39;;;;;;;4.78;2.88;;;24.50;55.30;;;;;;4917707;29;20055;-71
2022/09/05 10:37:11;;;;;;;3.13;2.80;;;24.50;55.30;;;;;;4921017;29;20051;-71
2022/09/05 10:39:45;;;;;;;2.90;2.65;;;24.50;55.00;;;;;;4919666;29;20073;-71
2022/09/05 10:42:27;;;;;;;3.92;2.90;;;24.60;55.60;;;;;;4932566;29;20035;-71
2022/09/05 10:44:54;;;;;;;2.60;2.40;;;24.70;55.60;;;;;;4920738;29;20122;-71
2022/09/05 10:48:02;;;;;;;2.60;2.40;;;24.70;54.40;;;;;;4917504;29;20708;-71
2022/09/05 10:50:48;;;;;;;5.57;2.83;;;24.70;53.80;;;;;;4912716;29;20119;-71
2022/09/05 10:53:57;;;;;;;9.45;2.40;;;24.80;54.70;;;;;;4922430;29;20040;-72
2022/09/05 10:56:28;;;;;;;3.67;2.40;;;24.80;54.10;;;;;;4913724;29;20039;-71
2022/09/05 10:59:03;;;;;;;8.40;2.45;;;24.90;53.50;;;;;;4919541;29;20067;-72
2022/09/05 11:01:44;;;;;;;6.17;3.23;;;24.90;54.10;;;;;;4923218;29;20492;-71
2022/09/05 11:04:33;;;;;;;3.00;2.35;;;25.00;54.30;;;;;;4918932;29;20292;-70
2022/09/05 11:07:14;;;;;;;2.35;2.15;;;25.00;54.50;;;;;;4907164;29;20058;-71
2022/09/05 11:09:51;;;;;;;8.23;2.92;;;25.10;53.80;;;;;;4919548;29;20031;-71
2022/09/05 11:13:04;;;;;;;3.80;2.80;;;25.20;54.20;;;;;;4922424;29;20799;-71
2022/09/05 11:15:39;;;;;;;4.93;2.80;;;25.30;52.30;;;;;;4916849;29;20690;-71
2022/09/05 11:18:14;;;;;;;5.63;3.05;;;25.30;53.70;;;;;;4915496;29;20088;-71
2022/09/05 11:20:59;;;;;;;6.32;2.70;;;25.30;53.60;;;;;;4920390;29;20095;-72
2022/09/05 11:23:42;;;;;;;3.72;2.58;;;25.40;52.90;;;;;;4918899;29;20484;-71
2022/09/05 11:26:32;;;;;;;4.28;2.70;;;25.40;52.60;;;;;;4915107;29;20095;-71
2022/09/05 11:29:06;;;;;;;4.32;2.67;;;25.50;53.40;;;;;;4920688;29;20204;-71
2022/09/05 11:32:00;;;;;;;9.50;2.88;;;25.50;53.30;;;;;;4917897;29;20115;-71
2022/09/05 11:34:38;;;;;;;3.85;2.90;;;25.50;53.10;;;;;;4919395;29;20452;-71
2022/09/05 11:37:26;;;;;;;3.72;2.70;;;25.40;53.20;;;;;;4922605;29;20115;-71
2022/09/05 11:39:57;;;;;;;7.03;2.92;;;25.50;52.00;;;;;;4923050;29;20039;-71
2022/09/05 11:42:49;;;;;;;3.15;2.60;;;25.50;53.20;;;;;;4921858;29;20059;-71
2022/09/05 11:45:44;;;;;;;3.88;2.63;;;25.40;52.20;;;;;;4920196;29;20680;-71
2022/09/05 11:49:02;;;;;;;3.33;2.63;;;25.30;53.60;;;;;;4925471;29;20039;-71
2022/09/05 11:51:40;;;;;;;3.08;2.78;;;25.40;53.50;;;;;;4923761;29;20054;-73
2022/09/05 11:54:30;;;;;;;3.45;2.92;;;25.50;52.20;;;;;;4923307;29;20051;-72
2022/09/05 11:57:12;;;;;;;4.70;2.47;;;25.50;52.80;;;;;;4922762;29;20046;-71
2022/09/05 11:59:47;;;;;;;6.60;2.60;;;25.50;53.00;;;;;;4921494;29;20031;-72
2022/09/05 12:02:25;;;;;;;3.75;2.83;;;25.50;53.20;;;;;;4919482;29;20492;-73
2022/09/05 12:04:56;;;;;;;4.22;2.80;;;25.50;52.40;;;;;;4922520;29;20445;-71
2022/09/05 12:07:34;;;;;;;4.22;2.95;;;25.50;53.10;;;;;;4926614;29;20024;-72
2022/09/05 12:10:09;;;;;;;2.38;2.17;;;25.50;52.30;;;;;;4923502;29;20035;-71
2022/09/05 12:13:15;;;;;;;3.85;2.55;;;25.50;52.30;;;;;;4924869;29;20501;-72
2022/09/05 12:15:45;;;;;;;3.70;3.00;;;25.40;52.70;;;;;;4917634;29;20043;-71
2022/09/05 12:18:41;;;;;;;5.68;2.97;;;25.40;52.50;;;;;;4920003;29;20146;-72
2022/09/05 12:21:36;;;;;;;3.38;2.90;;;25.40;53.40;;;;;;4917061;29;20044;-71
2022/09/05 12:24:30;;;;;;;4.13;2.50;;;25.50;52.60;;;;;;4924225;29;20040;-70
2022/09/05 12:27:07;;;;;;;4.28;3.10;;;25.50;52.00;;;;;;4923733;29;20419;-71
2022/09/05 12:29:41;;;;;;;3.58;2.65;;;25.50;51.70;;;;;;4926101;29;20555;-71
2022/09/05 12:32:15;;;;;;;5.47;2.92;;;25.40;51.90;;;;;;4922423;29;20064;-71
2022/09/05 12:35:00;;;;;;;3.28;2.80;;;25.50;52.30;;;;;;4924145;29;20035;-71
2022/09/05 12:37:32;;;;;;;3.67;3.30;;;25.50;52.90;;;;;;4922186;29;20028;-71
2022/09/05 12:40:13;;;;;;;4.38;2.95;;;25.60;51.70;;;;;;4917513;29;20032;-71
2022/09/05 12:42:42;;;;;;;3.65;3.00;;;25.70;51.50;;;;;;4921466;29;20118;-70
2022/09/05 12:45:08;;;;;;;6.05;3.50;;;25.70;51.30;;;;;;4924180;29;20696;-70
2022/09/05 12:47:52;;;;;;;3.47;3.08;;;25.60;51.30;;;;;;4925079;29;20031;-71
2022/09/05 12:50:22;;;;;;;3.97;2.88;;;25.50;52.40;;;;;;4922732;29;20050;-72
2022/09/05 12:53:00;;;;;;;4.30;2.88;;;25.60;52.50;;;;;;4922109;29;20047;-71
2022/09/05 12:55:38;;;;;;;4.68;2.80;;;25.50;51.80;;;;;;4921194;29;20171;-73
2022/09/05 12:58:17;;;;;;;5.05;3.00;;;25.50;52.70;;;;;;4916930;29;20048;-72
2022/09/05 13:00:47;;;;;;;5.85;2.85;;;25.50;52.60;;;;;;4920078;29;20031;-72
2022/09/05 13:03:26;;;;;;;4.60;2.80;;;25.50;51.90;;;;;;4924557;29;20027;-71
2022/09/05 13:06:13;;;;;;;3.63;2.88;;;25.50;52.90;;;;;;4922588;29;20130;-72
2022/09/05 13:08:48;;;;;;;3.33;3.00;;;25.50;53.40;;;;;;4920933;29;20049;-72
2022/09/05 13:11:18;;;;;;;4.70;2.63;;;25.50;51.70;;;;;;4922021;29;20051;-71
2022/09/05 13:13:50;;;;;;;5.70;2.75;;;25.40;53.00;;;;;;4922783;29;20611;-71
2022/09/05 13:16:24;;;;;;;5.60;2.67;;;25.40;53.60;;;;;;4924442;29;20032;-71
2022/09/05 13:19:06;;;;;;;4.60;2.80;;;25.50;52.30;;;;;;4917099;29;20051;-72
2022/09/05 13:21:38;;;;;;;4.82;2.75;;;25.50;51.70;;;;;;4926980;29;20050;-72
2022/09/05 13:24:10;;;;;;;5.65;2.47;;;25.50;51.20;;;;;;4924763;29;20066;-72
2022/09/05 13:26:52;;;;;;;2.72;2.53;;;25.60;51.70;;;;;;4924880;29;20032;-72
2022/09/05 13:29:23;;;;;;;7.15;2.80;;;25.60;51.20;;;;;;4920552;29;20047;-72
2022/09/05 13:32:04;;;;;;;5.03;2.60;;;25.70;52.80;;;;;;4921844;29;20469;-70
2022/09/05 13:34:42;;;;;;;7.60;3.25;;;25.80;50.90;;;;;;4920151;29;20031;-72
2022/09/05 13:37:19;;;;;;;3.35;2.78;;;25.70;50.90;;;;;;4918081;29;20468;-72
2022/09/05 13:40:08;;;;;;;3.47;2.55;;;25.80;51.10;;;;;;4922952;29;20536;-72
2022/09/05 13:42:42;;;;;;;3.00;2.55;;;25.70;51.00;;;;;;4925783;28;20041;-72
2022/09/05 13:45:17;;;;;;;3.55;3.17;;;25.80;50.60;;;;;;4923244;29;20036;-73
2022/09/05 13:48:01;;;;;;;3.15;2.65;;;25.80;51.20;;;;;;4919147;29;20059;-72
2022/09/05 13:50:43;;;;;;;3.47;2.33;;;25.70;49.80;;;;;;4916802;29;20042;-73
2022/09/05 13:53:25;;;;;;;4.53;2.70;;;25.70;50.60;;;;;;4918491;29;20819;-72
2022/09/05 13:56:01;;;;;;;4.15;3.05;;;25.60;50.80;;;;;;4917681;29;20040;-72
2022/09/05 13:58:42;;;;;;;3.17;2.88;;;25.50;51.50;;;;;;4919236;29;20028;-71
2022/09/05 14:01:38;;;;;;;2.95;2.65;;;25.50;52.00;;;;;;4924689;29;20067;-72
2022/09/05 14:04:38;;;;;;;3.40;2.67;;;25.50;51.30;;;;;;4923212;29;20078;-72
2022/09/05 14:07:43;;;;;;;4.03;2.60;;;25.50;52.10;;;;;;4921531;29;20067;-72
2022/09/05 14:10:18;;;;;;;3.78;2.80;;;25.50;51.30;;;;;;4921246;29;20056;-71
2022/09/05 14:13:03;;;;;;;3.63;2.70;;;25.40;51.30;;;;;;4919252;29;20046;-72